createdAt,value
2022-10-22T00:03:14.723Z,13.40
2022-10-22T00:05:41.472Z,12.90
2022-10-22T00:08:08.236Z,13.00
2022-10-22T00:10:37.159Z,14.70
2022-10-22T00:13:04.669Z,14.10
2022-10-22T00:15:31.526Z,14.60
2022-10-22T00:20:25.478Z,15.10
2022-10-22T00:30:14.269Z,15.70
2022-10-22T00:37:36.073Z,13.60
2022-10-22T00:40:03.724Z,15.40
2022-10-22T00:42:30.721Z,15.50
2022-10-22T00:45:06.067Z,15.80
2022-10-22T00:47:37.630Z,14.50
2022-10-22T00:50:08.112Z,13.70
2022-10-22T00:52:35.725Z,15.50
2022-10-22T00:55:02.817Z,14.80
2022-10-22T00:59:57.714Z,15.00
2022-10-22T01:02:24.701Z,14.40
2022-10-22T01:07:21.731Z,14.50
2022-10-22T01:10:20.004Z,14.70
2022-10-22T01:13:03.725Z,15.60
2022-10-22T01:15:55.703Z,13.20
2022-10-22T01:18:48.508Z,14.40
2022-10-22T01:21:27.045Z,13.50
2022-10-22T01:24:14.546Z,15.50
2022-10-22T01:27:00.889Z,14.70
2022-10-22T01:32:00.957Z,13.90
2022-10-22T01:34:30.047Z,13.70
2022-10-22T01:36:59.217Z,13.00
2022-10-22T01:39:28.794Z,15.60
2022-10-22T01:41:57.009Z,13.40
2022-10-22T01:47:15.490Z,13.50
2022-10-22T01:50:11.316Z,15.10
2022-10-22T01:52:56.245Z,13.50
2022-10-22T01:58:07.994Z,12.70
2022-10-22T02:00:38.443Z,13.50
2022-10-22T02:03:23.657Z,12.80
2022-10-22T02:05:56.812Z,14.40
2022-10-22T02:08:32.260Z,14.00
2022-10-22T02:11:01.014Z,13.90
2022-10-22T02:13:44.836Z,12.80
2022-10-22T02:16:16.760Z,13.60
2022-10-22T02:18:46.291Z,13.90
2022-10-22T02:26:19.476Z,15.10
2022-10-22T02:28:59.647Z,14.20
2022-10-22T02:31:30.965Z,13.90
2022-10-22T02:34:02.953Z,13.30
2022-10-22T02:36:30.165Z,15.20
2022-10-22T02:38:58.784Z,15.10
2022-10-22T02:41:25.707Z,13.50
2022-10-22T02:43:55.507Z,13.80
2022-10-22T02:46:23.494Z,13.70
2022-10-22T02:48:51.055Z,13.20
2022-10-22T02:53:45.178Z,15.00
2022-10-22T02:56:12.597Z,13.80
2022-10-22T02:58:39.404Z,14.80
2022-10-22T03:03:33.533Z,13.80
2022-10-22T03:06:00.355Z,15.00
2022-10-22T03:08:27.172Z,14.90
2022-10-22T03:13:21.338Z,13.80
2022-10-22T03:15:51.354Z,12.40
2022-10-22T03:20:45.605Z,14.10
2022-10-22T03:23:17.803Z,13.70
2022-10-22T03:25:46.691Z,13.60
2022-10-22T03:28:15.504Z,14.20
2022-10-22T03:30:42.350Z,12.40
2022-10-22T03:33:09.138Z,14.60
2022-10-22T03:35:42.160Z,13.10
2022-10-22T03:38:09.122Z,12.80
2022-10-22T03:45:30.784Z,13.40
2022-10-22T03:47:57.966Z,13.90
2022-10-22T04:02:42.505Z,14.90
2022-10-22T04:12:32.182Z,13.70
2022-10-22T04:19:53.539Z,14.00
2022-10-22T04:27:15.041Z,12.20
2022-10-22T04:29:42.111Z,12.70
2022-10-22T04:37:04.808Z,13.90
2022-10-22T04:39:31.627Z,12.20
2022-10-22T04:46:53.156Z,12.00
2022-10-22T04:49:20.271Z,13.80
2022-10-22T04:59:12.722Z,13.40
2022-10-22T05:01:44.216Z,13.30
2022-10-22T05:04:17.329Z,12.10
2022-10-22T05:06:45.001Z,13.90
2022-10-22T05:09:15.457Z,13.30
2022-10-22T05:11:48.784Z,13.30
2022-10-22T05:14:24.124Z,13.70
2022-10-22T05:19:23.968Z,13.40
2022-10-22T05:21:56.350Z,13.40
2022-10-22T05:26:51.370Z,13.40
2022-10-22T05:29:18.711Z,14.50
2022-10-22T05:36:40.611Z,12.50
2022-10-22T05:41:35.751Z,13.40
2022-10-22T05:46:33.722Z,13.50
2022-10-22T05:49:02.667Z,12.20
2022-10-22T05:51:32.013Z,14.80
2022-10-22T05:54:00.853Z,13.60
2022-10-22T05:56:29.753Z,13.50
2022-10-22T05:58:57.619Z,12.20
2022-10-22T06:01:27.829Z,13.50
2022-10-22T06:03:57.203Z,12.70
2022-10-22T06:08:52.777Z,13.50
2022-10-22T06:11:21.532Z,12.60
2022-10-22T06:13:49.494Z,14.70
2022-10-22T06:21:13.799Z,15.30
2022-10-22T06:23:42.117Z,13.30
2022-10-22T06:26:09.873Z,12.50
2022-10-22T06:28:37.141Z,12.50
2022-10-22T06:31:04.894Z,13.70
2022-10-22T06:33:34.244Z,13.60
2022-10-22T06:36:12.415Z,13.60
2022-10-22T06:41:10.117Z,12.50
2022-10-22T06:46:07.434Z,13.70
2022-10-22T06:51:05.680Z,13.70
2022-10-22T06:53:32.847Z,14.40
2022-10-22T07:01:20.362Z,14.40
2022-10-22T07:06:15.203Z,14.50
2022-10-22T07:11:12.985Z,15.40
2022-10-22T07:18:36.230Z,13.30
2022-10-22T07:21:03.927Z,15.60
2022-10-22T07:23:31.016Z,13.20
2022-10-22T07:28:25.652Z,16.00
2022-10-22T07:33:19.890Z,15.70
2022-10-22T07:35:46.747Z,15.10
2022-10-22T07:40:40.897Z,14.30
2022-10-22T07:43:07.722Z,16.50
2022-10-22T07:45:34.491Z,13.90
2022-10-22T07:48:02.324Z,14.30
2022-10-22T07:50:29.260Z,14.00
2022-10-22T07:55:25.773Z,15.00
2022-10-22T07:57:53.140Z,16.40
2022-10-22T08:00:23.087Z,16.80
2022-10-22T08:02:52.178Z,16.80
2022-10-22T08:05:19.286Z,14.30
2022-10-22T08:10:13.759Z,16.30
2022-10-22T08:12:41.866Z,17.20
2022-10-22T08:15:09.824Z,14.50
2022-10-22T08:20:04.627Z,14.90
2022-10-22T08:34:49.453Z,15.50
2022-10-22T08:37:17.702Z,14.60
2022-10-22T08:39:45.312Z,14.70
2022-10-22T08:42:27.517Z,17.60
2022-10-22T08:45:12.313Z,16.20
2022-10-22T08:48:04.039Z,15.00
2022-10-22T08:50:40.936Z,15.00
2022-10-22T08:53:14.709Z,16.30
2022-10-22T08:55:42.168Z,16.30
2022-10-22T08:58:45.191Z,16.30
2022-10-22T09:01:19.827Z,17.40
2022-10-22T09:03:58.816Z,17.10
2022-10-22T09:06:29.382Z,16.40
2022-10-22T09:08:58.645Z,16.40
2022-10-22T09:11:30.975Z,16.50
2022-10-22T09:13:59.654Z,16.60
2022-10-22T09:17:08.405Z,17.10
2022-10-22T09:19:52.941Z,17.00
2022-10-22T09:22:46.203Z,16.40
2022-10-22T09:25:27.006Z,18.80
2022-10-22T09:27:58.306Z,17.50
2022-10-22T09:30:30.719Z,16.20
2022-10-22T09:33:07.093Z,18.50
2022-10-22T09:35:43.723Z,18.00
2022-10-22T09:38:14.840Z,18.20
2022-10-22T09:40:47.465Z,17.90
2022-10-22T09:43:17.616Z,18.70
2022-10-22T09:45:45.888Z,18.40
2022-10-22T09:48:20.312Z,17.20
2022-10-22T09:50:54.847Z,19.90
2022-10-22T09:53:27.196Z,20.20
2022-10-22T10:01:00.808Z,19.60
2022-10-22T10:03:31.544Z,19.20
2022-10-22T10:06:03.127Z,19.50
2022-10-22T10:08:33.196Z,18.20
2022-10-22T10:11:09.665Z,20.20
2022-10-22T10:14:12.045Z,20.70
2022-10-22T10:16:53.267Z,19.10
2022-10-22T10:19:28.541Z,19.60
2022-10-22T10:22:17.235Z,18.10
2022-10-22T10:25:24.057Z,18.10
2022-10-22T10:27:58.161Z,17.90
2022-10-22T10:30:25.218Z,18.00
2022-10-22T10:35:25.209Z,20.90
2022-10-22T10:38:11.426Z,21.10
2022-10-22T10:40:46.550Z,19.70
2022-10-22T10:43:48.475Z,19.70
2022-10-22T10:46:25.502Z,19.50
2022-10-22T10:48:57.247Z,18.20
2022-10-22T10:51:47.058Z,19.60
2022-10-22T10:54:36.301Z,20.50
2022-10-22T10:57:32.704Z,18.90
2022-10-22T11:00:22.354Z,21.40
2022-10-22T11:03:31.441Z,20.40
2022-10-22T11:06:01.641Z,19.00
2022-10-22T11:08:35.954Z,21.70
2022-10-22T11:14:16.087Z,19.40
2022-10-22T11:16:47.550Z,20.20
2022-10-22T11:19:46.137Z,20.80
2022-10-22T11:22:23.438Z,21.40
2022-10-22T11:25:19.976Z,22.70
2022-10-22T11:28:07.878Z,20.80
2022-10-22T11:30:39.282Z,21.30
2022-10-22T11:33:11.437Z,20.20
2022-10-22T11:35:42.535Z,20.70
2022-10-22T11:38:15.095Z,21.80
2022-10-22T11:41:09.638Z,20.80
2022-10-22T11:43:57.602Z,23.20
2022-10-22T11:46:26.371Z,20.30
2022-10-22T11:49:13.292Z,22.10
2022-10-22T11:51:42.548Z,20.70
2022-10-22T11:54:29.587Z,20.40
2022-10-22T11:57:16.628Z,21.90
2022-10-22T12:00:09.657Z,21.50
2022-10-22T12:02:44.346Z,23.60
2022-10-22T12:05:24.529Z,22.50
2022-10-22T12:08:02.642Z,24.70
2022-10-22T12:10:58.314Z,25.40
2022-10-22T12:13:30.227Z,25.10
2022-10-22T12:16:01.507Z,25.20
2022-10-22T12:18:34.659Z,22.70
2022-10-22T12:23:35.520Z,23.40
2022-10-22T12:26:05.241Z,24.10
2022-10-22T12:28:41.182Z,23.10
2022-10-22T12:31:16.519Z,23.10
2022-10-22T12:33:43.912Z,26.20
2022-10-22T12:36:18.534Z,26.20
2022-10-22T12:38:48.366Z,26.90
2022-10-22T12:41:15.481Z,28.20
2022-10-22T12:43:42.340Z,28.10
2022-10-22T12:46:13.774Z,28.20
2022-10-22T12:48:43.125Z,27.80
2022-10-22T12:51:19.570Z,29.10
2022-10-22T12:53:53.112Z,27.90
2022-10-22T12:56:29.153Z,26.30
2022-10-22T12:59:00.225Z,26.60
2022-10-22T13:01:36.515Z,26.00
2022-10-22T13:04:20.116Z,26.50
2022-10-22T13:06:52.571Z,25.10
2022-10-22T13:09:25.287Z,24.50
2022-10-22T13:12:02.293Z,26.10
2022-10-22T13:14:31.720Z,26.20
2022-10-22T13:17:15.270Z,27.50
2022-10-22T13:19:44.887Z,28.10
2022-10-22T13:22:31.110Z,29.00
2022-10-22T13:25:03.289Z,28.10
2022-10-22T13:27:31.858Z,29.50
2022-10-22T13:30:02.648Z,30.60
2022-10-22T13:32:33.227Z,29.20
2022-10-22T13:35:02.101Z,28.80
2022-10-22T13:37:31.402Z,27.10
2022-10-22T13:39:58.277Z,28.90
2022-10-22T13:42:25.444Z,27.60
2022-10-22T13:44:52.329Z,29.40
2022-10-22T13:47:26.773Z,30.40
2022-10-22T13:49:59.258Z,31.20
2022-10-22T13:52:35.110Z,30.20
2022-10-22T13:55:02.753Z,30.30
2022-10-22T13:57:29.663Z,30.50
2022-10-22T13:59:56.517Z,29.10
2022-10-22T14:02:24.741Z,26.70
2022-10-22T14:04:51.893Z,25.60
2022-10-22T14:07:19.187Z,26.90
2022-10-22T14:12:16.567Z,27.40
2022-10-22T14:14:43.877Z,26.40
2022-10-22T14:17:16.854Z,26.10
2022-10-22T14:19:48.402Z,26.30
2022-10-22T14:22:19.626Z,25.80
2022-10-22T14:24:47.202Z,24.80
2022-10-22T14:27:15.390Z,27.10
2022-10-22T14:29:42.265Z,24.70
2022-10-22T14:32:19.116Z,25.70
2022-10-22T14:34:46.882Z,26.30
2022-10-22T14:37:19.437Z,25.60
2022-10-22T14:39:51.711Z,24.30
2022-10-22T14:42:21.442Z,22.40
2022-10-22T14:44:48.382Z,23.60
2022-10-22T14:47:15.145Z,24.10
2022-10-22T14:57:11.304Z,23.70
2022-10-22T14:59:38.164Z,22.80
2022-10-22T15:02:05.097Z,23.90
2022-10-22T15:06:59.354Z,24.10
2022-10-22T15:11:53.353Z,24.60
2022-10-22T15:19:14.746Z,24.80
2022-10-22T15:24:09.298Z,24.30
2022-10-22T15:26:36.229Z,22.30
2022-10-22T15:29:04.701Z,22.50
2022-10-22T15:32:06.990Z,23.40
2022-10-22T15:34:35.213Z,22.30
2022-10-22T15:37:04.554Z,21.20
2022-10-22T15:39:32.091Z,22.70
2022-10-22T15:41:59.859Z,21.70
2022-10-22T15:44:29.534Z,21.70
2022-10-22T15:49:25.493Z,21.00
2022-10-22T15:54:23.377Z,20.60
2022-10-22T15:56:50.255Z,19.30
2022-10-22T15:59:17.628Z,20.00
2022-10-22T16:06:42.541Z,21.30
2022-10-22T16:09:13.009Z,19.50
2022-10-22T16:11:40.419Z,19.50
2022-10-22T16:16:39.465Z,19.20
2022-10-22T16:19:06.508Z,20.30
2022-10-22T16:24:06.004Z,19.80
2022-10-22T16:29:01.127Z,19.60
2022-10-22T16:33:55.718Z,19.30
2022-10-22T16:41:19.654Z,16.30
2022-10-22T16:43:49.077Z,17.70
2022-10-22T16:46:18.553Z,16.60
2022-10-22T16:48:49.652Z,16.10
2022-10-22T16:51:19.920Z,16.10
2022-10-22T16:56:16.021Z,17.90
2022-10-22T16:58:48.561Z,16.90
2022-10-22T17:01:18.130Z,16.80
2022-10-22T17:03:45.987Z,15.60
2022-10-22T17:08:41.466Z,16.60
2022-10-22T17:11:20.108Z,17.80
2022-10-22T17:13:49.017Z,16.50
2022-10-22T17:16:17.710Z,16.40
2022-10-22T17:21:18.906Z,16.30
2022-10-22T17:26:23.677Z,17.50
2022-10-22T17:31:23.540Z,15.50
2022-10-22T17:33:52.634Z,15.90
2022-10-22T17:36:20.500Z,17.00
2022-10-22T17:38:52.468Z,15.70
2022-10-22T17:41:22.723Z,15.70
2022-10-22T17:43:49.744Z,16.60
2022-10-22T17:46:24.728Z,15.50
2022-10-22T17:48:59.916Z,16.20
2022-10-22T17:51:28.157Z,15.40
2022-10-22T17:56:25.105Z,15.30
2022-10-22T18:01:28.510Z,14.40
2022-10-22T18:03:59.771Z,16.20
2022-10-22T18:06:27.005Z,16.60
2022-10-22T18:11:27.660Z,15.20
2022-10-22T18:13:56.797Z,15.10
2022-10-22T18:18:53.842Z,15.20
2022-10-22T18:26:19.336Z,14.60
2022-10-22T18:31:22.578Z,13.60
2022-10-22T18:33:50.212Z,14.80
2022-10-22T18:36:20.346Z,14.70
2022-10-22T18:38:56.351Z,14.70
2022-10-22T18:41:24.073Z,14.70
2022-10-22T18:43:56.223Z,15.90
2022-10-22T18:48:54.661Z,14.50
2022-10-22T18:54:11.359Z,14.50
2022-10-22T18:59:19.380Z,14.40
2022-10-22T19:06:45.285Z,14.30
2022-10-22T19:09:13.843Z,13.60
2022-10-22T19:11:40.787Z,13.10
2022-10-22T19:19:07.011Z,14.20
2022-10-22T19:26:29.837Z,14.20
2022-10-22T19:28:58.401Z,13.30
2022-10-22T19:31:27.061Z,14.10
2022-10-22T19:36:25.294Z,14.20
2022-10-22T19:41:21.345Z,14.10
2022-10-22T19:43:51.107Z,14.10
2022-10-22T19:46:19.011Z,14.10
2022-10-22T19:51:20.611Z,14.10
2022-10-22T19:56:20.388Z,14.10
2022-10-22T19:58:47.737Z,14.10
2022-10-22T20:01:16.310Z,14.10
2022-10-22T20:06:12.070Z,14.10
2022-10-22T20:08:39.386Z,14.10
2022-10-22T20:11:36.364Z,14.80
2022-10-22T20:19:03.540Z,13.60
2022-10-22T20:26:28.267Z,13.90
2022-10-22T20:28:56.702Z,13.70
2022-10-22T20:31:27.082Z,14.00
2022-10-22T20:34:00.049Z,12.90
2022-10-22T20:36:28.721Z,15.30
2022-10-22T20:39:01.147Z,15.10
2022-10-22T20:46:29.267Z,12.60
2022-10-22T20:49:01.544Z,13.50
2022-10-22T20:51:29.135Z,12.60
2022-10-22T20:56:24.044Z,12.60
2022-10-22T21:03:52.665Z,13.70
2022-10-22T21:06:23.021Z,12.60
2022-10-22T21:08:51.333Z,13.70
2022-10-22T21:11:19.420Z,13.80
2022-10-22T21:16:15.278Z,12.80
2022-10-22T21:21:10.577Z,12.60
2022-10-22T21:23:37.510Z,13.00
2022-10-22T21:26:05.470Z,13.80
2022-10-22T21:28:37.132Z,12.70
2022-10-22T21:31:08.277Z,13.90
2022-10-22T21:33:39.549Z,13.80
2022-10-22T21:36:08.903Z,13.90
2022-10-22T21:38:36.849Z,13.70
2022-10-22T21:41:08.558Z,12.90
2022-10-22T21:43:38.221Z,13.90
2022-10-22T21:46:10.131Z,15.30
2022-10-22T21:48:38.054Z,13.80
2022-10-22T21:51:12.764Z,14.00
2022-10-22T21:56:07.731Z,12.80
2022-10-22T21:58:35.648Z,13.90
2022-10-22T22:03:30.318Z,13.60
2022-10-22T22:06:01.723Z,12.90
2022-10-22T22:11:23.555Z,13.90
2022-10-22T22:13:51.616Z,15.00
2022-10-22T22:16:28.629Z,12.90
2022-10-22T22:18:58.464Z,14.00
2022-10-22T22:26:25.474Z,13.90
2022-10-22T22:28:56.118Z,14.00
2022-10-22T22:31:29.487Z,14.00
2022-10-22T22:34:06.811Z,13.50
2022-10-22T22:36:39.698Z,14.00
2022-10-22T22:39:09.139Z,13.40
2022-10-22T22:56:25.331Z,13.90
2022-10-22T23:01:26.967Z,14.00
2022-10-22T23:03:57.132Z,14.00
2022-10-22T23:06:25.744Z,13.90
2022-10-22T23:08:54.086Z,13.90
2022-10-22T23:11:22.446Z,13.80
2022-10-22T23:13:54.457Z,15.20
2022-10-22T23:16:24.148Z,14.00
2022-10-22T23:18:53.405Z,13.90
2022-10-22T23:21:32.116Z,14.00
2022-10-22T23:24:01.817Z,14.30
2022-10-22T23:26:35.413Z,14.00
2022-10-22T23:29:07.133Z,13.90
2022-10-22T23:31:34.541Z,14.10
2022-10-22T23:34:01.294Z,12.60
2022-10-22T23:36:28.686Z,15.20
2022-10-22T23:38:55.770Z,13.50
2022-10-22T23:43:50.941Z,14.40
2022-10-22T23:46:17.754Z,12.60
2022-10-22T23:48:45.148Z,12.60
2022-10-22T23:51:15.582Z,13.70
2022-10-22T23:53:43.935Z,13.70
2022-10-22T23:56:14.330Z,15.00
2022-10-22T23:58:42.335Z,13.60
